createdAt,value
2019-05-23T00:02:12.043Z,5.70
2019-05-23T00:04:53.927Z,6.67
2019-05-23T00:07:27.522Z,6.33
2019-05-23T00:10:03.026Z,5.78
2019-05-23T00:12:54.218Z,5.83
2019-05-23T00:15:31.301Z,6.78
2019-05-23T00:18:05.028Z,5.90
2019-05-23T00:20:35.675Z,6.37
2019-05-23T00:23:08.678Z,6.20
2019-05-23T00:25:40.483Z,6.40
2019-05-23T00:28:10.672Z,6.40
2019-05-23T00:30:54.313Z,6.17
2019-05-23T00:33:27.858Z,6.50
2019-05-23T00:36:00.422Z,6.30
2019-05-23T00:38:32.815Z,6.12
2019-05-23T00:41:03.179Z,7.17
2019-05-23T00:43:33.248Z,6.33
2019-05-23T00:46:03.974Z,6.75
2019-05-23T00:48:36.237Z,6.55
2019-05-23T00:51:08.098Z,6.30
2019-05-23T00:53:38.641Z,6.70
2019-05-23T00:56:09.739Z,6.42
2019-05-23T00:58:42.297Z,6.20
2019-05-23T01:01:13.482Z,6.55
2019-05-23T01:03:44.042Z,6.30
2019-05-23T01:06:14.981Z,6.33
2019-05-23T01:08:46.719Z,7.08
2019-05-23T01:11:17.657Z,6.67
2019-05-23T01:13:47.982Z,7.03
2019-05-23T01:16:21.617Z,7.10
2019-05-23T01:18:53.349Z,6.95
2019-05-23T01:21:42.661Z,6.58
2019-05-23T01:24:20.997Z,6.75
2019-05-23T01:26:51.804Z,6.17
2019-05-23T01:29:25.121Z,6.35
2019-05-23T01:32:00.998Z,7.33
2019-05-23T01:34:32.017Z,7.22
2019-05-23T01:37:02.083Z,6.90
2019-05-23T01:39:32.757Z,7.42
2019-05-23T01:42:02.826Z,6.70
2019-05-23T01:44:34.113Z,7.75
2019-05-23T01:47:05.021Z,8.23
2019-05-23T01:49:36.951Z,9.55
2019-05-23T01:52:08.805Z,10.03
2019-05-23T01:54:38.785Z,8.75
2019-05-23T01:57:09.431Z,8.58
2019-05-23T01:59:39.597Z,7.75
2019-05-23T02:02:11.357Z,8.93
2019-05-23T02:04:42.133Z,8.55
2019-05-23T02:07:13.819Z,8.00
2019-05-23T02:09:45.215Z,7.50
2019-05-23T02:12:16.788Z,9.15
2019-05-23T02:14:48.532Z,9.15
2019-05-23T02:17:19.560Z,8.60
2019-05-23T02:19:50.585Z,8.53
2019-05-23T02:22:20.999Z,8.98
2019-05-23T02:24:52.409Z,9.15
2019-05-23T02:27:23.372Z,8.43
2019-05-23T02:29:54.123Z,8.20
2019-05-23T02:32:25.926Z,9.40
2019-05-23T02:34:56.597Z,8.13
2019-05-23T02:37:45.594Z,8.88
2019-05-23T02:40:21.650Z,7.95
2019-05-23T02:42:55.918Z,7.83
2019-05-23T02:45:34.103Z,7.87
2019-05-23T02:48:10.679Z,8.40
2019-05-23T02:50:46.806Z,7.97
2019-05-23T02:56:18.514Z,6.92
2019-05-23T02:59:11.131Z,7.90
2019-05-23T03:01:56.401Z,7.95
2019-05-23T03:04:30.101Z,7.83
2019-05-23T03:07:03.621Z,8.60
2019-05-23T03:09:36.770Z,7.35
2019-05-23T03:12:09.358Z,7.30
2019-05-23T03:14:41.636Z,8.20
2019-05-23T03:17:16.286Z,9.38
2019-05-23T03:19:54.036Z,8.58
2019-05-23T03:22:31.771Z,8.38
2019-05-23T03:25:04.524Z,7.78
2019-05-23T03:27:41.787Z,7.67
2019-05-23T03:30:17.854Z,8.00
2019-05-23T03:32:51.511Z,8.33
2019-05-23T03:35:29.855Z,8.53
2019-05-23T03:38:01.902Z,8.68
2019-05-23T03:40:33.049Z,8.55
2019-05-23T03:43:03.615Z,9.93
2019-05-23T03:45:39.658Z,10.08
2019-05-23T03:48:11.666Z,10.03
2019-05-23T03:50:43.942Z,9.83
2019-05-23T03:53:15.064Z,11.30
2019-05-23T03:55:47.993Z,10.08
2019-05-23T03:58:21.367Z,10.05
2019-05-23T04:00:53.703Z,10.25
2019-05-23T04:03:24.933Z,10.32
2019-05-23T04:05:56.998Z,11.22
2019-05-23T04:08:28.346Z,9.55
2019-05-23T04:10:59.006Z,10.40
2019-05-23T04:13:29.810Z,10.88
2019-05-23T04:16:00.616Z,11.48
2019-05-23T04:18:31.821Z,11.22
2019-05-23T04:21:03.589Z,10.30
2019-05-23T04:23:33.808Z,10.88
2019-05-23T04:26:04.376Z,10.63
2019-05-23T04:28:34.630Z,11.00
2019-05-23T04:31:04.685Z,11.90
2019-05-23T04:33:34.708Z,11.22
2019-05-23T04:36:06.917Z,11.00
2019-05-23T04:38:37.232Z,12.13
2019-05-23T04:41:07.495Z,10.98
2019-05-23T04:43:37.789Z,11.57
2019-05-23T04:46:08.604Z,10.95
2019-05-23T04:48:39.242Z,10.75
2019-05-23T04:51:09.853Z,9.85
2019-05-23T04:53:39.973Z,10.10
2019-05-23T04:56:11.965Z,9.78
2019-05-23T04:58:42.672Z,9.90
2019-05-23T05:01:15.424Z,9.73
2019-05-23T05:03:46.616Z,9.75
2019-05-23T05:06:16.859Z,8.83
2019-05-23T05:08:48.241Z,10.43
2019-05-23T05:11:18.472Z,9.60
2019-05-23T05:13:49.289Z,9.75
2019-05-23T05:16:19.528Z,9.30
2019-05-23T05:18:49.610Z,9.85
2019-05-23T05:21:19.873Z,9.78
2019-05-23T05:23:49.918Z,10.40
2019-05-23T05:26:23.913Z,9.80
2019-05-23T05:28:54.822Z,9.85
2019-05-23T05:31:24.878Z,9.63
2019-05-23T05:33:55.848Z,10.50
2019-05-23T05:36:26.796Z,10.15
2019-05-23T05:38:56.787Z,8.83
2019-05-23T05:41:28.907Z,10.48
2019-05-23T05:44:00.690Z,10.10
2019-05-23T05:46:31.375Z,9.10
2019-05-23T05:49:05.979Z,10.03
2019-05-23T05:51:37.128Z,8.80
2019-05-23T05:54:07.212Z,9.40
2019-05-23T05:56:37.339Z,9.78
2019-05-23T05:59:07.385Z,9.03
2019-05-23T06:01:37.451Z,8.73
2019-05-23T06:04:08.110Z,9.28
2019-05-23T06:06:49.994Z,8.83
2019-05-23T06:09:25.257Z,8.05
2019-05-23T06:11:55.417Z,9.13
2019-05-23T06:14:26.107Z,8.68
2019-05-23T06:16:57.292Z,7.75
2019-05-23T06:19:27.530Z,8.40
2019-05-23T06:21:58.552Z,7.83
2019-05-23T06:24:44.243Z,7.60
2019-05-23T06:27:00.856Z,7.22
2019-05-23T06:29:30.921Z,8.30
2019-05-23T06:32:02.111Z,7.80
2019-05-23T06:34:32.411Z,8.13
2019-05-23T06:37:02.517Z,7.47
2019-05-23T06:39:32.761Z,7.47
2019-05-23T06:42:03.819Z,6.95
2019-05-23T06:44:33.927Z,7.37
2019-05-23T06:47:06.315Z,6.78
2019-05-23T06:49:36.594Z,7.12
2019-05-23T06:52:06.634Z,8.00
2019-05-23T06:54:36.802Z,7.75
2019-05-23T06:57:07.027Z,7.28
2019-05-23T06:59:37.351Z,8.58
2019-05-23T07:02:07.634Z,8.88
2019-05-23T07:04:38.357Z,8.15
2019-05-23T07:07:09.274Z,8.23
2019-05-23T07:09:40.359Z,7.80
2019-05-23T07:12:12.103Z,8.18
2019-05-23T07:14:43.914Z,8.18
2019-05-23T07:17:16.471Z,7.92
2019-05-23T07:19:47.277Z,6.58
2019-05-23T07:22:20.061Z,7.45
2019-05-23T07:24:57.997Z,6.42
2019-05-23T07:27:24.531Z,7.53
2019-05-23T07:29:55.310Z,5.75
2019-05-23T07:32:25.449Z,6.08
2019-05-23T07:34:58.593Z,6.15
2019-05-23T07:37:29.489Z,5.90
2019-05-23T07:39:59.730Z,6.70
2019-05-23T07:42:38.533Z,5.62
2019-05-23T07:45:12.832Z,6.28
2019-05-23T07:47:43.109Z,6.35
2019-05-23T07:50:14.864Z,6.15
2019-05-23T07:52:45.398Z,6.20
2019-05-23T07:55:25.976Z,5.67
2019-05-23T07:57:56.452Z,6.83
2019-05-23T08:00:30.914Z,5.22
2019-05-23T08:03:04.319Z,6.22
2019-05-23T08:05:35.180Z,5.90
2019-05-23T08:08:05.616Z,6.22
2019-05-23T08:10:38.970Z,7.17
2019-05-23T08:13:09.250Z,7.08
2019-05-23T08:15:39.662Z,5.37
2019-05-23T08:18:10.992Z,6.22
2019-05-23T08:20:41.533Z,5.80
2019-05-23T08:23:13.113Z,5.40
2019-05-23T08:25:43.251Z,5.78
2019-05-23T08:28:14.309Z,5.33
2019-05-23T08:30:45.112Z,5.65
2019-05-23T08:33:15.704Z,4.50
2019-05-23T08:35:47.077Z,3.90
2019-05-23T08:38:17.717Z,3.40
2019-05-23T08:40:47.988Z,5.60
2019-05-23T08:43:18.611Z,6.22
2019-05-23T08:45:48.982Z,6.55
2019-05-23T08:48:19.796Z,5.47
2019-05-23T08:50:51.548Z,6.40
2019-05-23T08:53:23.343Z,5.25
2019-05-23T08:55:54.909Z,5.40
2019-05-23T08:58:24.908Z,5.22
2019-05-23T09:00:55.731Z,3.60
2019-05-23T09:03:26.880Z,4.95
2019-05-23T09:05:57.829Z,4.75
2019-05-23T09:08:29.849Z,4.67
2019-05-23T09:11:01.748Z,5.20
2019-05-23T09:13:32.126Z,5.83
2019-05-23T09:16:02.453Z,5.62
2019-05-23T09:18:33.798Z,5.60
2019-05-23T09:21:03.972Z,6.03
2019-05-23T09:23:34.443Z,6.58
2019-05-23T09:26:06.315Z,6.37
2019-05-23T09:28:36.367Z,6.80
2019-05-23T09:31:06.744Z,7.00
2019-05-23T09:33:36.989Z,7.03
2019-05-23T09:36:08.687Z,10.28
2019-05-23T09:38:40.789Z,11.93
2019-05-23T09:41:10.663Z,11.55
2019-05-23T09:43:40.885Z,11.43
2019-05-23T09:46:11.056Z,14.23
2019-05-23T09:48:41.222Z,14.25
2019-05-23T09:51:11.503Z,13.83
2019-05-23T09:53:46.974Z,12.65
2019-05-23T09:56:13.495Z,14.73
2019-05-23T09:58:43.707Z,14.10
2019-05-23T10:01:16.446Z,13.90
2019-05-23T10:03:46.933Z,14.80
2019-05-23T10:06:18.941Z,14.13
2019-05-23T10:08:49.363Z,15.20
2019-05-23T10:11:19.444Z,16.37
2019-05-23T10:13:49.464Z,15.53
2019-05-23T10:16:19.898Z,15.93
2019-05-23T10:18:50.435Z,14.87
2019-05-23T10:21:20.868Z,14.20
2019-05-23T10:23:50.972Z,14.78
2019-05-23T10:26:21.280Z,12.93
2019-05-23T10:28:51.440Z,10.50
2019-05-23T10:31:21.645Z,10.90
2019-05-23T10:33:51.722Z,11.78
2019-05-23T10:36:21.864Z,11.05
2019-05-23T10:38:52.064Z,11.53
2019-05-23T10:41:22.168Z,12.18
2019-05-23T10:43:52.226Z,11.48
2019-05-23T10:46:22.884Z,13.22
2019-05-23T10:48:53.840Z,13.48
2019-05-23T10:51:23.993Z,14.78
2019-05-23T10:53:54.124Z,13.20
2019-05-23T10:56:24.249Z,12.98
2019-05-23T10:58:57.500Z,16.67
2019-05-23T11:01:28.233Z,14.35
2019-05-23T11:03:58.934Z,15.88
2019-05-23T11:06:29.675Z,15.30
2019-05-23T11:09:00.304Z,17.00
2019-05-23T11:11:30.558Z,17.90
2019-05-23T11:14:00.898Z,16.65
2019-05-23T11:16:31.134Z,17.15
2019-05-23T11:19:01.710Z,17.87
2019-05-23T11:21:32.027Z,15.58
2019-05-23T11:24:02.709Z,16.77
2019-05-23T11:26:32.820Z,16.10
2019-05-23T11:29:03.388Z,15.75
2019-05-23T11:31:34.425Z,16.73
2019-05-23T11:34:04.985Z,16.35
2019-05-23T11:36:38.250Z,16.52
2019-05-23T11:39:09.758Z,15.93
2019-05-23T11:41:39.888Z,16.85
2019-05-23T11:44:25.282Z,14.75
2019-05-23T11:46:56.185Z,15.93
2019-05-23T11:49:26.518Z,14.87
2019-05-23T11:51:57.039Z,18.02
2019-05-23T11:54:28.070Z,15.63
2019-05-23T11:56:58.747Z,15.68
2019-05-23T11:59:29.048Z,14.10
2019-05-23T12:02:13.857Z,13.45
2019-05-23T12:04:44.735Z,15.38
2019-05-23T12:07:18.159Z,16.15
2019-05-23T12:09:48.276Z,15.38
2019-05-23T12:12:18.839Z,15.25
2019-05-23T12:14:49.512Z,16.25
2019-05-23T12:17:21.352Z,16.62
2019-05-23T12:19:51.429Z,17.00
2019-05-23T12:22:21.802Z,17.52
2019-05-23T12:24:52.264Z,17.42
2019-05-23T12:27:22.704Z,18.27
2019-05-23T12:29:52.978Z,19.17
2019-05-23T12:32:23.020Z,18.45
2019-05-23T12:35:09.443Z,19.77
2019-05-23T12:37:26.114Z,18.48
2019-05-23T12:39:56.554Z,19.12
2019-05-23T12:42:26.745Z,18.50
2019-05-23T12:44:56.914Z,18.20
2019-05-23T12:47:44.968Z,17.85
2019-05-23T12:50:18.548Z,17.48
2019-05-23T12:52:48.664Z,16.42
2019-05-23T12:55:18.831Z,17.48
2019-05-23T12:57:48.936Z,17.77
2019-05-23T13:00:34.970Z,17.42
2019-05-23T13:03:05.768Z,15.38
2019-05-23T13:05:36.261Z,14.85
2019-05-23T13:08:06.617Z,15.10
2019-05-23T13:10:36.757Z,14.38
2019-05-23T13:13:07.153Z,15.25
2019-05-23T13:15:38.797Z,15.48
2019-05-23T13:18:08.952Z,15.55
2019-05-23T13:20:40.120Z,15.08
2019-05-23T13:23:20.420Z,17.52
2019-05-23T13:25:44.599Z,16.45
2019-05-23T13:28:15.408Z,18.17
2019-05-23T13:30:45.850Z,18.60
2019-05-23T13:33:18.492Z,17.65
2019-05-23T13:35:48.868Z,18.15
2019-05-23T13:38:18.993Z,19.05
2019-05-23T13:40:49.109Z,17.85
2019-05-23T13:43:20.241Z,16.67
2019-05-23T13:45:50.378Z,18.32
2019-05-23T13:48:20.639Z,18.07
2019-05-23T13:50:50.765Z,17.55
2019-05-23T13:53:21.033Z,19.17
2019-05-23T13:55:51.542Z,18.95
2019-05-23T13:58:22.720Z,17.27
2019-05-23T14:00:54.238Z,18.10
2019-05-23T14:03:25.061Z,17.27
2019-05-23T14:05:55.242Z,15.85
2019-05-23T14:08:25.494Z,16.52
2019-05-23T14:10:55.747Z,16.30
2019-05-23T14:13:26.517Z,15.75
2019-05-23T14:15:56.989Z,14.78
2019-05-23T14:18:28.405Z,15.95
2019-05-23T14:20:58.654Z,14.85
2019-05-23T14:23:31.060Z,14.78
2019-05-23T14:26:01.743Z,16.60
2019-05-23T14:28:32.626Z,16.95
2019-05-23T14:31:22.122Z,15.43
2019-05-23T14:33:59.714Z,14.70
2019-05-23T14:36:48.981Z,16.60
2019-05-23T14:39:26.727Z,15.40
2019-05-23T14:42:02.864Z,14.98
2019-05-23T14:44:33.023Z,15.38
2019-05-23T14:47:22.209Z,14.78
2019-05-23T14:50:00.399Z,15.85
2019-05-23T14:52:37.388Z,15.20
2019-05-23T14:55:11.022Z,15.72
2019-05-23T14:57:41.852Z,15.53
2019-05-23T15:00:12.639Z,15.23
2019-05-23T15:02:45.113Z,14.73
2019-05-23T15:05:15.320Z,15.28
2019-05-23T15:07:45.378Z,15.83
2019-05-23T15:10:16.624Z,16.23
2019-05-23T15:12:46.812Z,16.37
2019-05-23T15:15:17.329Z,15.68
2019-05-23T15:17:47.503Z,15.68
2019-05-23T15:20:19.365Z,17.30
2019-05-23T15:22:49.417Z,16.57
2019-05-23T15:25:19.751Z,15.13
2019-05-23T15:27:49.908Z,16.17
2019-05-23T15:30:21.060Z,16.55
2019-05-23T15:32:52.142Z,17.23
2019-05-23T15:35:22.401Z,16.55
2019-05-23T15:37:52.871Z,16.32
2019-05-23T15:40:23.465Z,16.73
2019-05-23T15:42:54.125Z,17.52
2019-05-23T15:45:24.853Z,16.65
2019-05-23T15:47:57.211Z,16.52
2019-05-23T15:50:40.134Z,15.30
2019-05-23T15:53:22.523Z,15.65
2019-05-23T15:56:24.108Z,16.67
2019-05-23T15:58:44.465Z,18.23
2019-05-23T16:01:26.315Z,15.40
2019-05-23T16:04:01.764Z,15.08
2019-05-23T16:06:36.498Z,13.83
2019-05-23T16:09:27.929Z,14.90
2019-05-23T16:11:45.063Z,13.95
2019-05-23T16:14:16.632Z,13.62
2019-05-23T16:16:49.269Z,14.85
2019-05-23T16:19:21.614Z,14.07
2019-05-23T16:21:51.707Z,14.68
2019-05-23T16:24:22.416Z,14.20
2019-05-23T16:26:55.446Z,13.60
2019-05-23T16:29:26.514Z,14.25
2019-05-23T16:31:57.802Z,13.58
2019-05-23T16:34:29.285Z,13.38
2019-05-23T16:37:01.822Z,13.35
2019-05-23T16:39:46.699Z,12.98
2019-05-23T16:42:09.138Z,13.80
2019-05-23T16:44:43.781Z,13.50
2019-05-23T16:47:13.974Z,14.95
2019-05-23T16:49:45.508Z,12.63
2019-05-23T16:52:16.679Z,13.75
2019-05-23T16:54:48.965Z,12.58
2019-05-23T16:57:38.775Z,12.70
2019-05-23T17:00:28.701Z,12.82
2019-05-23T17:03:12.134Z,11.93
2019-05-23T17:05:57.052Z,13.20
2019-05-23T17:08:48.324Z,12.50
2019-05-23T17:11:44.344Z,12.28
2019-05-23T17:14:24.200Z,12.85
2019-05-23T17:17:13.485Z,12.07
2019-05-23T17:19:48.845Z,12.10
2019-05-23T17:22:38.076Z,13.95
2019-05-23T17:25:27.598Z,13.32
2019-05-23T17:28:06.339Z,12.53
2019-05-23T17:30:42.964Z,11.88
2019-05-23T17:33:13.284Z,12.30
2019-05-23T17:35:43.436Z,13.30
2019-05-23T17:38:13.623Z,13.93
2019-05-23T17:40:43.937Z,14.58
2019-05-23T17:43:14.269Z,13.15
2019-05-23T17:45:45.721Z,14.30
2019-05-23T17:48:16.293Z,14.70
2019-05-23T17:50:46.547Z,14.18
2019-05-23T17:53:16.996Z,14.68
2019-05-23T17:55:48.096Z,13.40
2019-05-23T17:58:20.038Z,13.60
2019-05-23T18:00:50.508Z,24.10
2019-05-23T18:03:21.294Z,22.13
2019-05-23T18:05:52.220Z,20.75
2019-05-23T18:08:28.335Z,14.68
2019-05-23T18:11:00.929Z,14.38
2019-05-23T18:13:34.525Z,15.30
2019-05-23T18:16:08.645Z,13.65
2019-05-23T18:18:43.166Z,16.23
2019-05-23T18:21:18.004Z,14.47
2019-05-23T18:23:49.013Z,14.45
2019-05-23T18:26:22.309Z,14.25
2019-05-23T18:28:53.317Z,15.13
2019-05-23T18:31:27.556Z,15.18
2019-05-23T18:33:58.304Z,15.10
2019-05-23T18:36:29.242Z,13.83
2019-05-23T18:39:04.986Z,14.85
2019-05-23T18:41:38.507Z,14.68
2019-05-23T18:44:11.308Z,14.50
2019-05-23T18:46:53.665Z,15.00
2019-05-23T18:49:25.677Z,14.40
2019-05-23T18:51:56.074Z,15.32
2019-05-23T18:54:26.345Z,15.28
2019-05-23T18:56:56.554Z,14.80
2019-05-23T18:59:27.086Z,13.58
2019-05-23T19:01:57.923Z,14.80
2019-05-23T19:04:28.159Z,13.62
2019-05-23T19:06:59.550Z,13.78
2019-05-23T19:09:33.752Z,14.35
2019-05-23T19:12:06.141Z,13.93
2019-05-23T19:14:36.561Z,13.80
2019-05-23T19:17:07.115Z,13.10
2019-05-23T19:19:40.314Z,12.85
2019-05-23T19:22:13.837Z,13.62
2019-05-23T19:24:45.686Z,13.93
2019-05-23T19:27:16.304Z,12.63
2019-05-23T19:33:08.050Z,12.53
2019-05-23T19:35:39.008Z,12.80
2019-05-23T19:38:10.625Z,11.57
2019-05-23T19:40:43.371Z,11.90
2019-05-23T19:43:17.928Z,11.18
2019-05-23T19:45:48.769Z,10.78
2019-05-23T19:48:20.115Z,13.22
2019-05-23T19:50:51.709Z,11.53
2019-05-23T19:53:22.248Z,11.68
2019-05-23T19:55:53.572Z,10.75
2019-05-23T19:58:24.312Z,11.22
2019-05-23T20:01:20.259Z,12.63
2019-05-23T20:04:10.476Z,11.83
2019-05-23T20:06:43.048Z,11.08
2019-05-23T20:09:16.397Z,11.68
2019-05-23T20:11:54.190Z,10.78
2019-05-23T20:14:23.075Z,11.93
2019-05-23T20:16:53.553Z,11.63
2019-05-23T20:19:23.876Z,11.97
2019-05-23T20:21:59.794Z,12.33
2019-05-23T20:24:33.623Z,11.35
2019-05-23T20:27:06.262Z,11.78
2019-05-23T20:29:37.945Z,11.83
2019-05-23T20:32:11.519Z,11.73
2019-05-23T20:34:45.778Z,12.13
2019-05-23T20:37:16.374Z,11.65
2019-05-23T20:39:47.555Z,11.55
2019-05-23T20:42:18.132Z,11.70
2019-05-23T20:44:48.859Z,12.13
2019-05-23T20:47:19.096Z,14.67
2019-05-23T20:49:52.297Z,11.88
2019-05-23T20:52:26.314Z,11.80
2019-05-23T20:55:00.260Z,11.40
2019-05-23T20:57:31.141Z,11.88
2019-05-23T21:00:01.786Z,11.68
2019-05-23T21:02:34.527Z,12.65
2019-05-23T21:05:05.593Z,13.03
2019-05-23T21:07:35.859Z,12.45
2019-05-23T21:10:06.204Z,12.45
2019-05-23T21:12:36.419Z,13.22
2019-05-23T21:15:07.141Z,11.33
2019-05-23T21:17:37.869Z,12.80
2019-05-23T21:20:08.260Z,10.70
2019-05-23T21:22:38.377Z,11.68
2019-05-23T21:25:08.848Z,13.10
2019-05-23T21:27:39.191Z,11.45
2019-05-23T21:30:12.209Z,10.68
2019-05-23T21:32:42.933Z,10.70
2019-05-23T21:35:13.252Z,11.00
2019-05-23T21:37:43.676Z,11.22
2019-05-23T21:40:17.890Z,11.80
2019-05-23T21:42:48.545Z,11.95
2019-05-23T21:45:20.453Z,11.48
2019-05-23T21:47:50.697Z,10.80
2019-05-23T21:50:20.900Z,11.05
2019-05-23T21:52:52.279Z,11.12
2019-05-23T21:55:35.945Z,11.28
2019-05-23T21:58:06.641Z,10.53
2019-05-23T22:01:34.100Z,11.18
2019-05-23T22:04:23.483Z,11.03
2019-05-23T22:06:57.053Z,10.88
2019-05-23T22:09:27.301Z,10.93
2019-05-23T22:11:57.806Z,10.30
2019-05-23T22:14:28.138Z,10.68
2019-05-23T22:16:58.151Z,11.22
2019-05-23T22:19:29.843Z,10.08
2019-05-23T22:21:59.914Z,9.80
2019-05-23T22:24:30.382Z,10.00
2019-05-23T22:27:00.707Z,11.22
2019-05-23T22:29:30.779Z,9.30
2019-05-23T22:32:01.088Z,9.28
2019-05-23T22:34:45.935Z,9.58
2019-05-23T22:37:19.122Z,9.25
2019-05-23T22:39:49.293Z,8.55
2019-05-23T22:42:20.432Z,8.98
2019-05-23T22:44:50.633Z,9.43
2019-05-23T22:47:21.212Z,8.78
2019-05-23T22:49:51.923Z,8.85
2019-05-23T22:52:22.188Z,9.55
2019-05-23T22:54:52.361Z,8.60
2019-05-23T22:57:22.575Z,9.25
2019-05-23T22:59:52.752Z,9.15
2019-05-23T23:02:22.920Z,9.08
2019-05-23T23:04:53.127Z,8.43
2019-05-23T23:07:23.487Z,8.38
2019-05-23T23:09:54.811Z,8.00
2019-05-23T23:12:24.889Z,7.00
2019-05-23T23:14:54.997Z,7.62
2019-05-23T23:17:25.452Z,6.90
2019-05-23T23:19:56.067Z,6.17
2019-05-23T23:22:26.268Z,7.15
2019-05-23T23:24:56.534Z,6.12
2019-05-23T23:27:26.664Z,6.17
2019-05-23T23:29:56.864Z,7.00
2019-05-23T23:32:26.873Z,6.67
2019-05-23T23:34:57.009Z,5.67
2019-05-23T23:37:27.005Z,6.80
2019-05-23T23:39:57.222Z,7.03
2019-05-23T23:42:27.277Z,6.97
2019-05-23T23:45:16.401Z,6.72
2019-05-23T23:48:05.530Z,6.67
2019-05-23T23:50:54.669Z,6.83
2019-05-23T23:53:43.751Z,6.83
2019-05-23T23:56:32.943Z,6.60
2019-05-23T23:59:03.562Z,6.70
